Архив погоды в Донецке за Февраль, 2019 год

icon
Год:Все200220032004200520062007200820092010201120122013201420152016201720182019
Месяц:ЯнварьФевральМартДекабрь
Дата Облачность Температура (д/н), °C Давление, мм Влажность, % Ветер, м/с
01.02.2019 Облачность пасмурно -1 / -1 737 100 В, 6
02.02.2019 Облачность пасмурно +0 / +0 741 100 В, 3
03.02.2019 Облачность пасмурно +1 / +0 745 100 В, 3
04.02.2019 Облачность пасмурно +3 / -4 752 81 Ю-В, 3
05.02.2019 Облачность пасмурно +2 / -3 746 92 С-В, 3
06.02.2019 Облачность пасмурно -1 / -1 740 100 Ю-В, 1
07.02.2019 Облачность пасмурно -1 / -3 741 74 С, 4
08.02.2019 Облачность снег -4 / -4 743 87 В, 5
09.02.2019 Облачность пасмурно -3 / -4 742 90 В, 4
10.02.2019 Облачность пасмурно -3 / -2 741 82 В, 1
11.02.2019 Облачность пасмурно +0 / +0 740 94 Ю-В, 3
12.02.2019 Облачность ясно +6 / +3 737 80 Ю-В, 4
13.02.2019 Облачность пасмурно +2 / -5 742 78 З, 2
14.02.2019 Облачность ясно +1 / -6 745 53 В, 2
15.02.2019 Облачность ясно +0 / -2 746 62 С-В, 2
16.02.2019 Облачность пасмурно +1 / +0 740 87 С-З, 3
17.02.2019 Облачность ясно +7 / +1 735 68 З, 4
18.02.2019 Облачность ясно +3 / -4 738 53 С-З, 4
19.02.2019 Облачность ясно +2 / -5 746 44 В, 1
20.02.2019 Облачность ясно +6 / +2 738 30 Ю-З, 5
21.02.2019 Облачность пасмурно +4 / -5 734 69 З, 4
22.02.2019 Облачность пасмурно -3 / -7 737 51 С-З, 2
23.02.2019 Облачность ясно -3 / -7 752 45 С, 4
24.02.2019 Облачность ясно -1 / -6 754 27 С, 2
25.02.2019 Облачность пасмурно +2 / -2 746 52 З, 5
26.02.2019 Облачность дождь +2 / -1 734 76 З, 5
27.02.2019 Облачность снег +2 / -2 736 73 С, 4
28.02.2019 Облачность снег +0 / +0 727 87 Ю-З, 6
icon
Облачность:ясно ясно
Темп. днем:-4..-2 °C
Темп. ночью:-8..-6 °C
Давление:752 мм
Влажность:45 %
Ветер:С, 4 м/с
icon
USDusd27,02(+0,01468)
RUBrub0,41(+0,00038)
EUReur30,60(-0,06168)
icon
Сб. 23 Февраль 2019
icon
Логин:
Код: ---
 
Реклама
icon